Overview Statistics Trail Chart Weather Telemetry Raw packets
 

This is the latest recevied weather packets stored in our database for station/object N5ZP. If no packets are shown the sender has not sent any weather packets the latest 10 day(s).

<< 1 2 3 4 >>
Time Temp. Humidity Pressure Rain* Wind** Luminosity Snow
1788616214 29.44° C 68% 1012.1 hPa 0 mm - 195 W/m² -
1788615914 28.89° C 69% 1012.1 hPa 0 mm - 45 W/m² -
1788615613 28.33° C 72% 1012.3 hPa 0 mm - 165 W/m² -
1788615308 28.33° C 72% 1012 hPa 0 mm - 132 W/m² -
1788615002 28.33° C 72% 1012 hPa 0 mm - 125 W/m² -
1788614697 27.78° C 73% 1011.9 hPa 0 mm - 129 W/m² -
1788614397 28.33° C 70% 1011.8 hPa 0 mm - 118 W/m² -
1788614093 27.78° C 72% 1011.7 hPa 0 mm - 107 W/m² -
1788613788 27.22° C 75% 1011.6 hPa 0 mm - 96 W/m² -
1788613487 26.11° C 79% 1011.7 hPa 0 mm - 84 W/m² -
1788613187 25.56° C 80% 1011.7 hPa 0 mm - 75 W/m² -
1788612882 25° C 82% 1011.5 hPa 0 mm - 65 W/m² -
1788612577 23.89° C 87% 1011.5 hPa 0 mm - 54 W/m² -
1788612274 23.33° C 89% 1011.2 hPa 0 mm - 41 W/m² -
1788611974 22.78° C 90% 1011.3 hPa 0 mm - 22 W/m² -
1788611671 22.22° C 90% 1011.5 hPa 0 mm - 18 W/m² -
1788611365 22.22° C 90% 1011.4 hPa 0 mm - 15 W/m² -
1788611065 22.22° C 90% 1011.3 hPa 0 mm - 12 W/m² -
1788610761 22.22° C 89% 1011.2 hPa 0 mm - 9 W/m² -
1788610456 22.22° C 89% 1011.3 hPa 0 mm - 6 W/m² -
1788610155 22.22° C 89% 1011.3 hPa 0 mm - 4 W/m² -
1788609855 22.22° C 89% 1011.2 hPa 0 mm - 2 W/m² -
1788609550 22.22° C 89% 1011.1 hPa 0 mm - 1 W/m² -
1788609250 22.22° C 87% 1011.1 hPa 0 mm - 0 W/m² -
1788608945 22.78° C 87% 1010.8 hPa 0 mm - 0 W/m² -

* Rain latest hour (hover to see other rain measurements)
** Current wind speed in m/s (hover to see current wind gust speed)